sensor_id;sensor_type;location;lat;lon;timestamp;temperature;humidity
9389;DHT22;4734;52.778;6.798;2024-03-08T00:00:05;4.30;99.90
9389;DHT22;4734;52.778;6.798;2024-03-08T00:02:56;4.30;99.90
9389;DHT22;4734;52.778;6.798;2024-03-08T00:05:43;4.30;99.90
9389;DHT22;4734;52.778;6.798;2024-03-08T00:08:28;4.30;99.90
9389;DHT22;4734;52.778;6.798;2024-03-08T00:11:14;4.20;99.90
9389;DHT22;4734;52.778;6.798;2024-03-08T00:14:00;4.20;99.90
9389;DHT22;4734;52.778;6.798;2024-03-08T00:16:46;4.20;99.90
9389;DHT22;4734;52.778;6.798;2024-03-08T00:19:31;4.20;99.90
9389;DHT22;4734;52.778;6.798;2024-03-08T00:22:18;4.20;99.90
9389;DHT22;4734;52.778;6.798;2024-03-08T00:25:05;4.10;99.90
9389;DHT22;4734;52.778;6.798;2024-03-08T00:27:53;4.10;99.90
9389;DHT22;4734;52.778;6.798;2024-03-08T00:30:40;4.10;99.90
9389;DHT22;4734;52.778;6.798;2024-03-08T00:33:27;4.10;99.90
9389;DHT22;4734;52.778;6.798;2024-03-08T00:36:12;4.10;99.90
9389;DHT22;4734;52.778;6.798;2024-03-08T00:38:59;4.10;99.90
9389;DHT22;4734;52.778;6.798;2024-03-08T00:41:45;4.10;99.90
9389;DHT22;4734;52.778;6.798;2024-03-08T00:44:31;4.10;99.90
9389;DHT22;4734;52.778;6.798;2024-03-08T00:47:17;4.00;99.90
9389;DHT22;4734;52.778;6.798;2024-03-08T00:50:03;4.00;99.90
9389;DHT22;4734;52.778;6.798;2024-03-08T00:52:49;4.00;99.90
9389;DHT22;4734;52.778;6.798;2024-03-08T00:55:36;4.00;99.90
9389;DHT22;4734;52.778;6.798;2024-03-08T00:58:22;4.00;99.90
9389;DHT22;4734;52.778;6.798;2024-03-08T01:01:08;4.00;99.90
9389;DHT22;4734;52.778;6.798;2024-03-08T01:03:54;4.00;99.90
9389;DHT22;4734;52.778;6.798;2024-03-08T01:06:39;3.90;99.90
9389;DHT22;4734;52.778;6.798;2024-03-08T01:09:25;3.90;99.90
9389;DHT22;4734;52.778;6.798;2024-03-08T01:12:13;3.90;99.90
9389;DHT22;4734;52.778;6.798;2024-03-08T01:14:58;3.90;99.90
9389;DHT22;4734;52.778;6.798;2024-03-08T01:17:44;3.90;99.90
9389;DHT22;4734;52.778;6.798;2024-03-08T01:20:30;3.90;99.90
9389;DHT22;4734;52.778;6.798;2024-03-08T01:23:16;3.90;99.90
9389;DHT22;4734;52.778;6.798;2024-03-08T01:26:01;3.80;99.90
9389;DHT22;4734;52.778;6.798;2024-03-08T01:28:49;3.80;99.90
9389;DHT22;4734;52.778;6.798;2024-03-08T01:31:35;3.80;99.90
9389;DHT22;4734;52.778;6.798;2024-03-08T01:34:23;3.80;99.90
9389;DHT22;4734;52.778;6.798;2024-03-08T01:37:08;3.80;99.90
9389;DHT22;4734;52.778;6.798;2024-03-08T01:39:54;3.80;99.90
9389;DHT22;4734;52.778;6.798;2024-03-08T01:42:40;3.80;99.90
9389;DHT22;4734;52.778;6.798;2024-03-08T01:45:27;3.80;99.90
9389;DHT22;4734;52.778;6.798;2024-03-08T01:48:12;3.70;99.90
9389;DHT22;4734;52.778;6.798;2024-03-08T01:50:59;3.70;99.90
9389;DHT22;4734;52.778;6.798;2024-03-08T01:53:45;3.70;99.90
9389;DHT22;4734;52.778;6.798;2024-03-08T01:56:31;3.70;99.90
9389;DHT22;4734;52.778;6.798;2024-03-08T01:59:17;3.70;99.90
9389;DHT22;4734;52.778;6.798;2024-03-08T02:02:05;3.70;99.90
9389;DHT22;4734;52.778;6.798;2024-03-08T02:04:54;3.70;99.90
9389;DHT22;4734;52.778;6.798;2024-03-08T02:07:41;3.70;99.90
9389;DHT22;4734;52.778;6.798;2024-03-08T02:10:28;3.70;99.90
9389;DHT22;4734;52.778;6.798;2024-03-08T02:13:14;3.70;99.90
9389;DHT22;4734;52.778;6.798;2024-03-08T02:16:00;3.70;99.90
9389;DHT22;4734;52.778;6.798;2024-03-08T02:18:47;3.60;99.90
9389;DHT22;4734;52.778;6.798;2024-03-08T02:21:33;3.60;99.90
9389;DHT22;4734;52.778;6.798;2024-03-08T02:24:19;3.60;99.90
9389;DHT22;4734;52.778;6.798;2024-03-08T02:27:05;3.60;99.90
9389;DHT22;4734;52.778;6.798;2024-03-08T02:29:51;3.60;99.90
9389;DHT22;4734;52.778;6.798;2024-03-08T02:32:39;3.50;99.90
9389;DHT22;4734;52.778;6.798;2024-03-08T02:35:25;3.50;99.90
9389;DHT22;4734;52.778;6.798;2024-03-08T02:38:13;3.50;99.90
9389;DHT22;4734;52.778;6.798;2024-03-08T02:41:00;3.50;99.90
9389;DHT22;4734;52.778;6.798;2024-03-08T02:43:48;3.50;99.90
9389;DHT22;4734;52.778;6.798;2024-03-08T02:46:34;3.50;99.90
9389;DHT22;4734;52.778;6.798;2024-03-08T02:49:20;3.50;99.90
9389;DHT22;4734;52.778;6.798;2024-03-08T02:52:06;3.50;99.90
9389;DHT22;4734;52.778;6.798;2024-03-08T02:54:52;3.50;99.90
9389;DHT22;4734;52.778;6.798;2024-03-08T02:57:38;3.50;99.90
9389;DHT22;4734;52.778;6.798;2024-03-08T03:00:23;3.50;99.90
9389;DHT22;4734;52.778;6.798;2024-03-08T03:03:09;3.50;99.90
9389;DHT22;4734;52.778;6.798;2024-03-08T03:05:54;3.50;99.90
9389;DHT22;4734;52.778;6.798;2024-03-08T03:08:40;3.40;99.90
9389;DHT22;4734;52.778;6.798;2024-03-08T03:11:28;3.40;99.90
9389;DHT22;4734;52.778;6.798;2024-03-08T03:14:13;3.40;99.90
9389;DHT22;4734;52.778;6.798;2024-03-08T03:17:00;3.40;99.90
9389;DHT22;4734;52.778;6.798;2024-03-08T03:19:46;3.40;99.90
9389;DHT22;4734;52.778;6.798;2024-03-08T03:22:32;3.40;99.90
9389;DHT22;4734;52.778;6.798;2024-03-08T03:25:19;3.40;99.90
9389;DHT22;4734;52.778;6.798;2024-03-08T03:28:10;3.40;99.90
9389;DHT22;4734;52.778;6.798;2024-03-08T03:30:58;3.30;99.90
9389;DHT22;4734;52.778;6.798;2024-03-08T03:33:44;3.30;99.90
9389;DHT22;4734;52.778;6.798;2024-03-08T03:36:30;3.30;99.90
9389;DHT22;4734;52.778;6.798;2024-03-08T03:39:15;3.30;99.90
9389;DHT22;4734;52.778;6.798;2024-03-08T03:42:01;3.30;99.90
9389;DHT22;4734;52.778;6.798;2024-03-08T03:44:49;3.30;99.90
9389;DHT22;4734;52.778;6.798;2024-03-08T03:47:34;3.30;99.90
9389;DHT22;4734;52.778;6.798;2024-03-08T03:50:20;3.30;99.90
9389;DHT22;4734;52.778;6.798;2024-03-08T03:53:06;3.30;99.90
9389;DHT22;4734;52.778;6.798;2024-03-08T03:55:52;3.30;99.90
9389;DHT22;4734;52.778;6.798;2024-03-08T03:58:37;3.30;99.90
9389;DHT22;4734;52.778;6.798;2024-03-08T04:01:25;3.30;99.90
9389;DHT22;4734;52.778;6.798;2024-03-08T04:04:10;3.20;99.90
9389;DHT22;4734;52.778;6.798;2024-03-08T04:06:56;3.20;99.90
9389;DHT22;4734;52.778;6.798;2024-03-08T04:09:42;3.20;99.90
9389;DHT22;4734;52.778;6.798;2024-03-08T04:12:28;3.20;99.90
9389;DHT22;4734;52.778;6.798;2024-03-08T04:15:14;3.20;99.90
9389;DHT22;4734;52.778;6.798;2024-03-08T04:18:01;3.20;99.90
9389;DHT22;4734;52.778;6.798;2024-03-08T04:20:46;3.20;99.90
9389;DHT22;4734;52.778;6.798;2024-03-08T04:23:33;3.10;99.90
9389;DHT22;4734;52.778;6.798;2024-03-08T04:26:19;3.20;99.90
9389;DHT22;4734;52.778;6.798;2024-03-08T04:29:05;3.10;99.90
9389;DHT22;4734;52.778;6.798;2024-03-08T04:31:51;3.10;99.90
9389;DHT22;4734;52.778;6.798;2024-03-08T04:34:39;3.10;99.90
9389;DHT22;4734;52.778;6.798;2024-03-08T04:37:25;3.10;99.90
9389;DHT22;4734;52.778;6.798;2024-03-08T04:40:11;3.10;99.90
9389;DHT22;4734;52.778;6.798;2024-03-08T04:42:56;3.20;99.90
9389;DHT22;4734;52.778;6.798;2024-03-08T04:45:43;3.10;99.90
9389;DHT22;4734;52.778;6.798;2024-03-08T04:48:28;3.10;99.90
9389;DHT22;4734;52.778;6.798;2024-03-08T04:51:16;3.10;99.90
9389;DHT22;4734;52.778;6.798;2024-03-08T04:54:03;3.10;99.90
9389;DHT22;4734;52.778;6.798;2024-03-08T04:56:49;3.10;99.90
9389;DHT22;4734;52.778;6.798;2024-03-08T04:59:35;3.10;99.90
9389;DHT22;4734;52.778;6.798;2024-03-08T05:02:21;3.00;99.90
9389;DHT22;4734;52.778;6.798;2024-03-08T05:05:08;3.00;99.90
9389;DHT22;4734;52.778;6.798;2024-03-08T05:07:57;3.00;99.90
9389;DHT22;4734;52.778;6.798;2024-03-08T05:10:42;3.00;99.90
9389;DHT22;4734;52.778;6.798;2024-03-08T05:13:28;3.00;99.90
9389;DHT22;4734;52.778;6.798;2024-03-08T05:16:14;3.00;99.90
9389;DHT22;4734;52.778;6.798;2024-03-08T05:19:00;3.00;99.90
9389;DHT22;4734;52.778;6.798;2024-03-08T05:21:47;3.00;99.90
9389;DHT22;4734;52.778;6.798;2024-03-08T05:24:34;3.00;99.90
9389;DHT22;4734;52.778;6.798;2024-03-08T05:27:19;3.00;99.90
9389;DHT22;4734;52.778;6.798;2024-03-08T05:30:06;3.00;99.90
9389;DHT22;4734;52.778;6.798;2024-03-08T05:32:55;2.90;99.90
9389;DHT22;4734;52.778;6.798;2024-03-08T05:35:41;2.90;99.90
9389;DHT22;4734;52.778;6.798;2024-03-08T05:38:26;2.90;99.90
9389;DHT22;4734;52.778;6.798;2024-03-08T05:41:13;2.90;99.90
9389;DHT22;4734;52.778;6.798;2024-03-08T05:43:59;2.90;99.90
9389;DHT22;4734;52.778;6.798;2024-03-08T05:46:44;2.90;99.90
9389;DHT22;4734;52.778;6.798;2024-03-08T05:49:30;2.90;99.90
9389;DHT22;4734;52.778;6.798;2024-03-08T05:52:15;2.90;99.90
9389;DHT22;4734;52.778;6.798;2024-03-08T05:55:01;2.90;99.90
9389;DHT22;4734;52.778;6.798;2024-03-08T05:57:51;2.90;99.90
9389;DHT22;4734;52.778;6.798;2024-03-08T06:00:38;2.80;99.90
9389;DHT22;4734;52.778;6.798;2024-03-08T06:03:24;2.80;99.90
9389;DHT22;4734;52.778;6.798;2024-03-08T06:06:09;2.80;99.90
9389;DHT22;4734;52.778;6.798;2024-03-08T06:08:55;2.80;99.90
9389;DHT22;4734;52.778;6.798;2024-03-08T06:11:43;2.80;99.90
9389;DHT22;4734;52.778;6.798;2024-03-08T06:14:29;2.80;99.90
9389;DHT22;4734;52.778;6.798;2024-03-08T06:17:15;2.80;99.90
9389;DHT22;4734;52.778;6.798;2024-03-08T06:20:02;2.80;99.90
9389;DHT22;4734;52.778;6.798;2024-03-08T06:22:48;2.80;99.90
9389;DHT22;4734;52.778;6.798;2024-03-08T06:25:34;2.80;99.90
9389;DHT22;4734;52.778;6.798;2024-03-08T06:28:19;2.70;99.90
9389;DHT22;4734;52.778;6.798;2024-03-08T06:31:06;2.70;99.90
9389;DHT22;4734;52.778;6.798;2024-03-08T06:33:52;2.70;99.90
9389;DHT22;4734;52.778;6.798;2024-03-08T06:36:38;2.70;99.90
9389;DHT22;4734;52.778;6.798;2024-03-08T06:39:24;2.70;99.90
9389;DHT22;4734;52.778;6.798;2024-03-08T06:42:09;2.70;99.90
9389;DHT22;4734;52.778;6.798;2024-03-08T06:44:56;2.70;99.90
9389;DHT22;4734;52.778;6.798;2024-03-08T06:47:50;2.70;99.90
9389;DHT22;4734;52.778;6.798;2024-03-08T06:50:35;2.70;99.90
9389;DHT22;4734;52.778;6.798;2024-03-08T06:53:21;2.70;99.90
9389;DHT22;4734;52.778;6.798;2024-03-08T06:56:07;2.70;99.90
9389;DHT22;4734;52.778;6.798;2024-03-08T06:58:52;2.70;99.90
9389;DHT22;4734;52.778;6.798;2024-03-08T07:01:39;2.70;99.90
9389;DHT22;4734;52.778;6.798;2024-03-08T07:04:26;2.70;99.90
9389;DHT22;4734;52.778;6.798;2024-03-08T07:07:14;2.70;99.90
9389;DHT22;4734;52.778;6.798;2024-03-08T07:09:59;2.70;99.90
9389;DHT22;4734;52.778;6.798;2024-03-08T07:12:45;2.70;99.90
9389;DHT22;4734;52.778;6.798;2024-03-08T07:15:31;2.70;99.90
9389;DHT22;4734;52.778;6.798;2024-03-08T07:18:16;2.70;99.90
9389;DHT22;4734;52.778;6.798;2024-03-08T07:21:04;2.70;99.90
9389;DHT22;4734;52.778;6.798;2024-03-08T07:23:50;2.70;99.90
9389;DHT22;4734;52.778;6.798;2024-03-08T07:26:59;2.70;99.90
9389;DHT22;4734;52.778;6.798;2024-03-08T07:29:44;2.70;99.90
9389;DHT22;4734;52.778;6.798;2024-03-08T07:32:30;2.70;99.90
9389;DHT22;4734;52.778;6.798;2024-03-08T07:35:16;2.70;99.90
9389;DHT22;4734;52.778;6.798;2024-03-08T07:38:05;2.70;99.90
9389;DHT22;4734;52.778;6.798;2024-03-08T07:40:51;2.70;99.90
9389;DHT22;4734;52.778;6.798;2024-03-08T07:43:37;2.80;99.90
9389;DHT22;4734;52.778;6.798;2024-03-08T07:46:22;2.80;99.90
9389;DHT22;4734;52.778;6.798;2024-03-08T07:49:08;2.80;99.90
9389;DHT22;4734;52.778;6.798;2024-03-08T07:51:54;2.80;99.90
9389;DHT22;4734;52.778;6.798;2024-03-08T07:54:41;2.80;99.90
9389;DHT22;4734;52.778;6.798;2024-03-08T07:57:27;2.90;99.90
9389;DHT22;4734;52.778;6.798;2024-03-08T08:00:14;2.90;99.90
9389;DHT22;4734;52.778;6.798;2024-03-08T08:03:02;2.90;99.90
9389;DHT22;4734;52.778;6.798;2024-03-08T08:05:48;2.90;99.90
9389;DHT22;4734;52.778;6.798;2024-03-08T08:08:34;3.00;99.90
9389;DHT22;4734;52.778;6.798;2024-03-08T08:11:22;3.00;99.90
9389;DHT22;4734;52.778;6.798;2024-03-08T08:14:08;3.00;99.90
9389;DHT22;4734;52.778;6.798;2024-03-08T08:16:53;3.10;99.90
9389;DHT22;4734;52.778;6.798;2024-03-08T08:19:41;3.10;99.90
9389;DHT22;4734;52.778;6.798;2024-03-08T08:22:27;3.10;99.90
9389;DHT22;4734;52.778;6.798;2024-03-08T08:25:13;3.10;99.90
9389;DHT22;4734;52.778;6.798;2024-03-08T08:28:01;3.20;99.90
9389;DHT22;4734;52.778;6.798;2024-03-08T08:30:48;3.20;99.90
9389;DHT22;4734;52.778;6.798;2024-03-08T08:33:33;3.30;99.90
9389;DHT22;4734;52.778;6.798;2024-03-08T08:36:19;3.30;99.90
9389;DHT22;4734;52.778;6.798;2024-03-08T08:39:05;3.40;99.90
9389;DHT22;4734;52.778;6.798;2024-03-08T08:41:56;3.40;99.90
9389;DHT22;4734;52.778;6.798;2024-03-08T08:44:43;3.50;99.90
9389;DHT22;4734;52.778;6.798;2024-03-08T08:47:28;3.50;99.90
9389;DHT22;4734;52.778;6.798;2024-03-08T08:50:14;3.60;99.90
9389;DHT22;4734;52.778;6.798;2024-03-08T08:53:00;3.70;99.90
9389;DHT22;4734;52.778;6.798;2024-03-08T08:55:47;3.80;99.90
9389;DHT22;4734;52.778;6.798;2024-03-08T08:58:33;3.90;99.90
9389;DHT22;4734;52.778;6.798;2024-03-08T09:01:21;3.90;99.90
9389;DHT22;4734;52.778;6.798;2024-03-08T09:04:07;4.00;99.90
9389;DHT22;4734;52.778;6.798;2024-03-08T09:06:55;4.10;99.90
9389;DHT22;4734;52.778;6.798;2024-03-08T09:09:42;4.10;99.90
9389;DHT22;4734;52.778;6.798;2024-03-08T09:12:28;4.20;99.90
9389;DHT22;4734;52.778;6.798;2024-03-08T09:15:13;4.20;99.90
9389;DHT22;4734;52.778;6.798;2024-03-08T09:18:03;4.30;99.90
9389;DHT22;4734;52.778;6.798;2024-03-08T09:20:50;4.40;99.90
9389;DHT22;4734;52.778;6.798;2024-03-08T09:23:37;4.40;99.90
9389;DHT22;4734;52.778;6.798;2024-03-08T09:26:24;4.50;99.90
9389;DHT22;4734;52.778;6.798;2024-03-08T09:29:09;4.60;99.90
9389;DHT22;4734;52.778;6.798;2024-03-08T09:31:55;4.70;99.90
9389;DHT22;4734;52.778;6.798;2024-03-08T09:34:43;4.80;99.90
9389;DHT22;4734;52.778;6.798;2024-03-08T09:37:28;4.90;99.90
9389;DHT22;4734;52.778;6.798;2024-03-08T09:40:13;5.00;99.90
9389;DHT22;4734;52.778;6.798;2024-03-08T09:42:59;5.10;99.90
9389;DHT22;4734;52.778;6.798;2024-03-08T09:45:46;5.10;99.90
9389;DHT22;4734;52.778;6.798;2024-03-08T09:48:35;5.20;99.90
9389;DHT22;4734;52.778;6.798;2024-03-08T09:54:13;5.30;99.90
9389;DHT22;4734;52.778;6.798;2024-03-08T10:01:28;5.60;99.90
9389;DHT22;4734;52.778;6.798;2024-03-08T10:26:11;6.00;99.90
9389;DHT22;4734;52.778;6.798;2024-03-08T10:56:42;7.30;99.90
9389;DHT22;4734;52.778;6.798;2024-03-08T10:59:29;8.00;99.90
9389;DHT22;4734;52.778;6.798;2024-03-08T11:02:17;8.10;99.90
9389;DHT22;4734;52.778;6.798;2024-03-08T11:05:05;8.20;99.90
9389;DHT22;4734;52.778;6.798;2024-03-08T11:07:57;8.40;99.90
9389;DHT22;4734;52.778;6.798;2024-03-08T11:10:47;8.50;99.90
9389;DHT22;4734;52.778;6.798;2024-03-08T11:13:37;8.60;99.90
9389;DHT22;4734;52.778;6.798;2024-03-08T11:16:38;8.70;99.90
9389;DHT22;4734;52.778;6.798;2024-03-08T11:19:27;8.80;99.90
9389;DHT22;4734;52.778;6.798;2024-03-08T11:22:27;8.90;99.90
9389;DHT22;4734;52.778;6.798;2024-03-08T11:25:33;9.00;99.90
9389;DHT22;4734;52.778;6.798;2024-03-08T11:28:22;9.10;99.90
9389;DHT22;4734;52.778;6.798;2024-03-08T11:31:32;9.20;99.90
9389;DHT22;4734;52.778;6.798;2024-03-08T11:34:19;9.20;99.90
9389;DHT22;4734;52.778;6.798;2024-03-08T11:37:11;9.30;99.90
9389;DHT22;4734;52.778;6.798;2024-03-08T11:39:59;9.40;99.90
9389;DHT22;4734;52.778;6.798;2024-03-08T11:42:49;9.40;99.90
9389;DHT22;4734;52.778;6.798;2024-03-08T11:45:35;9.50;99.90
9389;DHT22;4734;52.778;6.798;2024-03-08T11:48:21;9.60;99.90
9389;DHT22;4734;52.778;6.798;2024-03-08T11:51:07;9.60;99.90
9389;DHT22;4734;52.778;6.798;2024-03-08T11:53:54;9.70;99.90
9389;DHT22;4734;52.778;6.798;2024-03-08T11:56:41;9.70;99.90
9389;DHT22;4734;52.778;6.798;2024-03-08T11:59:28;9.80;99.90
9389;DHT22;4734;52.778;6.798;2024-03-08T12:02:15;9.90;99.90
9389;DHT22;4734;52.778;6.798;2024-03-08T12:05:07;9.90;99.90
9389;DHT22;4734;52.778;6.798;2024-03-08T12:07:56;10.00;99.90
9389;DHT22;4734;52.778;6.798;2024-03-08T12:10:42;10.00;99.90
9389;DHT22;4734;52.778;6.798;2024-03-08T12:13:31;10.00;99.90
9389;DHT22;4734;52.778;6.798;2024-03-08T12:16:18;10.10;99.90
9389;DHT22;4734;52.778;6.798;2024-03-08T12:19:04;10.10;99.90
9389;DHT22;4734;52.778;6.798;2024-03-08T12:21:49;10.10;99.90
9389;DHT22;4734;52.778;6.798;2024-03-08T12:24:35;10.10;99.90
9389;DHT22;4734;52.778;6.798;2024-03-08T12:27:21;10.20;99.90
9389;DHT22;4734;52.778;6.798;2024-03-08T12:30:23;10.20;99.90
9389;DHT22;4734;52.778;6.798;2024-03-08T12:33:11;10.20;99.90
9389;DHT22;4734;52.778;6.798;2024-03-08T12:35:57;10.20;99.90
9389;DHT22;4734;52.778;6.798;2024-03-08T12:38:44;10.20;99.90
9389;DHT22;4734;52.778;6.798;2024-03-08T12:41:32;10.30;99.90
9389;DHT22;4734;52.778;6.798;2024-03-08T12:44:27;10.30;99.90
9389;DHT22;4734;52.778;6.798;2024-03-08T12:47:14;10.30;99.90
9389;DHT22;4734;52.778;6.798;2024-03-08T12:49:59;10.40;99.90
9389;DHT22;4734;52.778;6.798;2024-03-08T12:52:45;10.40;99.90
9389;DHT22;4734;52.778;6.798;2024-03-08T12:55:30;10.40;99.90
9389;DHT22;4734;52.778;6.798;2024-03-08T12:58:16;10.50;99.90
9389;DHT22;4734;52.778;6.798;2024-03-08T13:01:02;10.50;99.90
9389;DHT22;4734;52.778;6.798;2024-03-08T13:03:50;10.50;99.90
9389;DHT22;4734;52.778;6.798;2024-03-08T13:06:37;10.50;99.90
9389;DHT22;4734;52.778;6.798;2024-03-08T13:09:23;10.60;99.90
9389;DHT22;4734;52.778;6.798;2024-03-08T13:12:11;10.60;99.90
9389;DHT22;4734;52.778;6.798;2024-03-08T13:14:57;10.70;99.90
9389;DHT22;4734;52.778;6.798;2024-03-08T13:17:42;10.70;99.90
9389;DHT22;4734;52.778;6.798;2024-03-08T13:20:32;10.70;99.90
9389;DHT22;4734;52.778;6.798;2024-03-08T13:23:17;10.70;99.90
9389;DHT22;4734;52.778;6.798;2024-03-08T13:26:03;10.70;99.90
9389;DHT22;4734;52.778;6.798;2024-03-08T13:28:49;10.80;99.90
9389;DHT22;4734;52.778;6.798;2024-03-08T13:31:37;10.80;99.90
9389;DHT22;4734;52.778;6.798;2024-03-08T13:34:24;10.90;99.90
9389;DHT22;4734;52.778;6.798;2024-03-08T13:37:15;10.90;99.90
9389;DHT22;4734;52.778;6.798;2024-03-08T13:40:01;11.00;99.90
9389;DHT22;4734;52.778;6.798;2024-03-08T13:42:49;11.00;99.90
9389;DHT22;4734;52.778;6.798;2024-03-08T13:45:35;11.10;99.90
9389;DHT22;4734;52.778;6.798;2024-03-08T13:48:22;11.20;99.90
9389;DHT22;4734;52.778;6.798;2024-03-08T13:51:07;11.30;99.90
9389;DHT22;4734;52.778;6.798;2024-03-08T13:53:55;11.40;99.90
9389;DHT22;4734;52.778;6.798;2024-03-08T13:56:41;11.40;99.90
9389;DHT22;4734;52.778;6.798;2024-03-08T13:59:28;11.50;99.90
9389;DHT22;4734;52.778;6.798;2024-03-08T14:02:16;11.60;99.90
9389;DHT22;4734;52.778;6.798;2024-03-08T14:05:02;11.70;99.90
9389;DHT22;4734;52.778;6.798;2024-03-08T14:07:48;11.80;99.90
9389;DHT22;4734;52.778;6.798;2024-03-08T14:10:36;11.80;99.90
9389;DHT22;4734;52.778;6.798;2024-03-08T14:13:21;11.90;99.90
9389;DHT22;4734;52.778;6.798;2024-03-08T14:16:08;12.00;99.90
9389;DHT22;4734;52.778;6.798;2024-03-08T14:18:54;12.10;99.90
9389;DHT22;4734;52.778;6.798;2024-03-08T14:21:40;12.20;99.90
9389;DHT22;4734;52.778;6.798;2024-03-08T14:24:26;12.20;99.90
9389;DHT22;4734;52.778;6.798;2024-03-08T14:27:13;12.30;99.90
9389;DHT22;4734;52.778;6.798;2024-03-08T14:29:59;12.30;99.90
9389;DHT22;4734;52.778;6.798;2024-03-08T14:32:45;12.40;99.90
9389;DHT22;4734;52.778;6.798;2024-03-08T14:35:31;12.50;99.90
9389;DHT22;4734;52.778;6.798;2024-03-08T14:38:18;12.50;99.90
9389;DHT22;4734;52.778;6.798;2024-03-08T14:41:04;12.60;99.90
9389;DHT22;4734;52.778;6.798;2024-03-08T14:43:52;12.70;99.90
9389;DHT22;4734;52.778;6.798;2024-03-08T14:46:38;12.80;99.90
9389;DHT22;4734;52.778;6.798;2024-03-08T14:49:24;12.80;99.90
9389;DHT22;4734;52.778;6.798;2024-03-08T14:52:13;12.90;99.90
9389;DHT22;4734;52.778;6.798;2024-03-08T14:55:13;13.00;99.90
9389;DHT22;4734;52.778;6.798;2024-03-08T14:57:59;13.10;99.90
9389;DHT22;4734;52.778;6.798;2024-03-08T15:00:46;13.20;99.90
9389;DHT22;4734;52.778;6.798;2024-03-08T15:03:32;13.30;99.90
9389;DHT22;4734;52.778;6.798;2024-03-08T15:06:17;13.30;99.90
9389;DHT22;4734;52.778;6.798;2024-03-08T15:09:05;13.40;99.90
9389;DHT22;4734;52.778;6.798;2024-03-08T15:11:56;13.50;99.90
9389;DHT22;4734;52.778;6.798;2024-03-08T15:14:42;13.60;99.90
9389;DHT22;4734;52.778;6.798;2024-03-08T15:17:29;13.60;99.90
9389;DHT22;4734;52.778;6.798;2024-03-08T15:20:14;13.70;99.90
9389;DHT22;4734;52.778;6.798;2024-03-08T15:23:00;13.80;99.90
9389;DHT22;4734;52.778;6.798;2024-03-08T15:25:48;13.80;99.90
9389;DHT22;4734;52.778;6.798;2024-03-08T15:28:34;13.90;99.90
9389;DHT22;4734;52.778;6.798;2024-03-08T15:31:21;13.90;99.90
9389;DHT22;4734;52.778;6.798;2024-03-08T15:34:10;13.90;99.90
9389;DHT22;4734;52.778;6.798;2024-03-08T15:36:57;14.00;99.90
9389;DHT22;4734;52.778;6.798;2024-03-08T15:39:46;14.00;99.90
9389;DHT22;4734;52.778;6.798;2024-03-08T15:42:32;14.00;99.90
9389;DHT22;4734;52.778;6.798;2024-03-08T15:45:18;14.00;99.90
9389;DHT22;4734;52.778;6.798;2024-03-08T15:48:04;14.00;99.90
9389;DHT22;4734;52.778;6.798;2024-03-08T15:50:51;14.10;99.90
9389;DHT22;4734;52.778;6.798;2024-03-08T15:53:37;14.00;99.90
9389;DHT22;4734;52.778;6.798;2024-03-08T15:56:23;14.00;99.90
9389;DHT22;4734;52.778;6.798;2024-03-08T15:59:10;14.00;99.90
9389;DHT22;4734;52.778;6.798;2024-03-08T16:01:55;14.00;99.90
9389;DHT22;4734;52.778;6.798;2024-03-08T16:04:41;13.90;99.90
9389;DHT22;4734;52.778;6.798;2024-03-08T16:07:30;13.90;99.90
9389;DHT22;4734;52.778;6.798;2024-03-08T16:10:16;13.90;99.90
9389;DHT22;4734;52.778;6.798;2024-03-08T16:13:01;13.90;99.90
9389;DHT22;4734;52.778;6.798;2024-03-08T16:15:48;13.90;99.90
9389;DHT22;4734;52.778;6.798;2024-03-08T16:18:34;13.80;99.90
9389;DHT22;4734;52.778;6.798;2024-03-08T16:21:21;13.80;99.90
9389;DHT22;4734;52.778;6.798;2024-03-08T16:24:08;13.70;99.90
9389;DHT22;4734;52.778;6.798;2024-03-08T16:26:53;13.60;99.90
9389;DHT22;4734;52.778;6.798;2024-03-08T16:29:39;13.60;99.90
9389;DHT22;4734;52.778;6.798;2024-03-08T16:32:24;13.50;99.90
9389;DHT22;4734;52.778;6.798;2024-03-08T16:35:10;13.50;99.90
9389;DHT22;4734;52.778;6.798;2024-03-08T16:37:56;13.40;99.90
9389;DHT22;4734;52.778;6.798;2024-03-08T16:40:44;13.30;99.90
9389;DHT22;4734;52.778;6.798;2024-03-08T16:43:30;13.20;99.90
9389;DHT22;4734;52.778;6.798;2024-03-08T16:46:16;13.20;99.90
9389;DHT22;4734;52.778;6.798;2024-03-08T16:49:02;13.10;99.90
9389;DHT22;4734;52.778;6.798;2024-03-08T16:51:49;13.00;99.90
9389;DHT22;4734;52.778;6.798;2024-03-08T16:54:35;12.90;99.90
9389;DHT22;4734;52.778;6.798;2024-03-08T16:57:23;12.80;99.90
9389;DHT22;4734;52.778;6.798;2024-03-08T17:00:15;12.70;99.90
9389;DHT22;4734;52.778;6.798;2024-03-08T17:03:03;12.70;99.90
9389;DHT22;4734;52.778;6.798;2024-03-08T17:05:48;12.60;99.90
9389;DHT22;4734;52.778;6.798;2024-03-08T17:08:36;12.50;99.90
9389;DHT22;4734;52.778;6.798;2024-03-08T17:11:22;12.40;99.90
9389;DHT22;4734;52.778;6.798;2024-03-08T17:14:09;12.30;99.90
9389;DHT22;4734;52.778;6.798;2024-03-08T17:16:56;12.20;99.90
9389;DHT22;4734;52.778;6.798;2024-03-08T17:19:43;12.10;99.90
9389;DHT22;4734;52.778;6.798;2024-03-08T17:22:28;12.00;99.90
9389;DHT22;4734;52.778;6.798;2024-03-08T17:25:14;11.90;99.90
9389;DHT22;4734;52.778;6.798;2024-03-08T17:28:05;11.80;99.90
9389;DHT22;4734;52.778;6.798;2024-03-08T17:30:54;11.70;99.90
9389;DHT22;4734;52.778;6.798;2024-03-08T17:33:40;11.60;99.90
9389;DHT22;4734;52.778;6.798;2024-03-08T17:36:26;11.50;99.90
9389;DHT22;4734;52.778;6.798;2024-03-08T17:39:13;11.40;99.90
9389;DHT22;4734;52.778;6.798;2024-03-08T17:42:03;11.30;99.90
9389;DHT22;4734;52.778;6.798;2024-03-08T17:44:49;11.20;99.90
9389;DHT22;4734;52.778;6.798;2024-03-08T17:47:37;11.10;99.90
9389;DHT22;4734;52.778;6.798;2024-03-08T17:50:22;11.00;99.90
9389;DHT22;4734;52.778;6.798;2024-03-08T17:53:08;10.90;99.90
9389;DHT22;4734;52.778;6.798;2024-03-08T17:55:54;10.90;99.90
9389;DHT22;4734;52.778;6.798;2024-03-08T17:58:41;10.80;99.90
9389;DHT22;4734;52.778;6.798;2024-03-08T18:01:26;10.70;99.90
9389;DHT22;4734;52.778;6.798;2024-03-08T18:04:13;10.60;99.90
9389;DHT22;4734;52.778;6.798;2024-03-08T18:06:59;10.50;99.90
9389;DHT22;4734;52.778;6.798;2024-03-08T18:09:45;10.40;99.90
9389;DHT22;4734;52.778;6.798;2024-03-08T18:12:31;10.30;99.90
9389;DHT22;4734;52.778;6.798;2024-03-08T18:15:16;10.30;99.90
9389;DHT22;4734;52.778;6.798;2024-03-08T18:18:05;10.10;99.90
9389;DHT22;4734;52.778;6.798;2024-03-08T18:20:54;10.00;99.90
9389;DHT22;4734;52.778;6.798;2024-03-08T18:23:39;10.00;99.90
9389;DHT22;4734;52.778;6.798;2024-03-08T18:26:27;9.90;99.90
9389;DHT22;4734;52.778;6.798;2024-03-08T18:29:12;9.80;99.90
9389;DHT22;4734;52.778;6.798;2024-03-08T18:31:59;9.70;99.90
9389;DHT22;4734;52.778;6.798;2024-03-08T18:34:46;9.60;99.90
9389;DHT22;4734;52.778;6.798;2024-03-08T18:37:34;9.50;99.90
9389;DHT22;4734;52.778;6.798;2024-03-08T18:40:20;9.40;99.90
9389;DHT22;4734;52.778;6.798;2024-03-08T18:43:07;9.40;99.90
9389;DHT22;4734;52.778;6.798;2024-03-08T18:45:53;9.30;99.90
9389;DHT22;4734;52.778;6.798;2024-03-08T18:48:38;9.20;99.90
9389;DHT22;4734;52.778;6.798;2024-03-08T18:51:24;9.10;99.90
9389;DHT22;4734;52.778;6.798;2024-03-08T18:54:11;9.00;99.90
9389;DHT22;4734;52.778;6.798;2024-03-08T18:56:56;8.90;99.90
9389;DHT22;4734;52.778;6.798;2024-03-08T18:59:42;8.90;99.90
9389;DHT22;4734;52.778;6.798;2024-03-08T19:02:29;8.80;99.90
9389;DHT22;4734;52.778;6.798;2024-03-08T19:05:17;8.70;99.90
9389;DHT22;4734;52.778;6.798;2024-03-08T19:08:03;8.60;99.90
9389;DHT22;4734;52.778;6.798;2024-03-08T19:10:53;8.60;99.90
9389;DHT22;4734;52.778;6.798;2024-03-08T19:13:41;8.50;99.90
9389;DHT22;4734;52.778;6.798;2024-03-08T19:16:27;8.50;99.90